Time;durP1;ratioP1;P1;durP2;ratioP2;P2;SDS_P1;SDS_P2;PMS_P1;PMS_P2;Temp;Humidity;BMP_temperature;BMP_pressure;BME280_temperature;BME280_humidity;BME280_pressure;Samples;Min_cycle;Max_cycle;Signal;HPM_P1;HPM_P2
2023/01/04 05:31:43;;;;;;;;;2.00;2.00;;;;;11.43;85.58;101973.69;1421825;25;46129;-74
2023/01/04 05:34:08;;;;;;;;;1.00;1.00;;;;;11.48;86.41;101971.75;5034328;28;45416;-77
2023/01/04 05:36:33;;;;;;;;;1.50;1.00;;;;;11.54;86.00;101985.00;5036756;28;46127;-78
2023/01/04 05:38:59;;;;;;;;;1.00;0.75;;;;;11.52;86.54;101988.63;5040205;28;45326;-74
2023/01/04 05:44:08;;;;;;;;;3.75;1.00;;;;;11.60;86.73;101997.34;5037736;28;45303;-75
2023/01/04 05:46:33;;;;;;;;;2.00;2.00;;;;;11.43;87.12;101972.78;5036966;28;45343;-77
2023/01/04 05:48:59;;;;;;;;;1.25;1.25;;;;;11.51;87.91;102011.03;5037058;28;45211;-76
2023/01/04 05:51:24;;;;;;;;;1.00;1.00;;;;;11.45;88.27;102001.38;5039435;28;45185;-77
2023/01/04 05:53:49;;;;;;;;;3.00;1.00;;;;;11.42;88.38;102009.50;5036990;28;45537;-77
2023/01/04 05:56:15;;;;;;;;;1.00;1.00;;;;;11.42;88.76;102012.19;5036625;28;46263;-76
2023/01/04 05:58:40;;;;;;;;;1.00;1.00;;;;;11.33;88.96;101986.50;5036173;28;45422;-76
2023/01/04 06:01:06;;;;;;;;;3.00;1.50;;;;;11.39;89.38;101993.50;5036664;28;45375;-76
2023/01/04 06:03:31;;;;;;;;;1.25;1.25;;;;;11.48;89.15;102003.97;5036645;28;45414;-75
2023/01/04 06:05:57;;;;;;;;;1.00;1.00;;;;;11.48;89.04;102019.22;5018397;28;46953;-81
2023/01/04 06:08:22;;;;;;;;;2.00;1.00;;;;;11.48;88.58;102022.78;5036446;28;45450;-76
2023/01/04 06:10:53;;;;;;;;;1.00;1.00;;;;;11.44;88.74;102026.47;5036626;28;45363;-74
2023/01/04 06:13:19;;;;;;;;;1.00;1.00;;;;;11.40;88.67;102037.34;5036248;28;45486;-75
2023/01/04 06:15:44;;;;;;;;;1.50;1.50;;;;;11.23;88.21;101989.47;5036194;28;45470;-79
2023/01/04 06:18:10;;;;;;;;;0.00;0.00;;;;;11.50;87.89;102028.97;5020412;28;45827;-79
2023/01/04 06:20:35;;;;;;;;;2.50;1.00;;;;;11.43;87.85;102037.25;5039204;28;45311;-79
2023/01/04 06:23:01;;;;;;;;;0.25;0.25;;;;;11.49;87.62;102019.13;5035815;28;46416;-79
2023/01/04 06:25:26;;;;;;;;;1.00;1.00;;;;;11.60;87.84;102033.13;5036792;28;45450;-76
2023/01/04 06:27:51;;;;;;;;;1.00;1.00;;;;;11.55;87.95;102012.72;5036334;28;45322;-77
2023/01/04 06:30:17;;;;;;;;;0.50;0.50;;;;;11.64;87.92;102017.81;5038464;28;45367;-79
2023/01/04 06:32:42;;;;;;;;;0.00;0.00;;;;;11.62;88.26;102017.88;5039857;28;45589;-77
2023/01/04 06:35:08;;;;;;;;;0.00;0.00;;;;;11.63;88.38;102010.69;5038995;28;45553;-75
2023/01/04 06:37:34;;;;;;;;;1.00;1.00;;;;;11.56;89.02;102015.38;5019812;28;46030;-75
2023/01/04 06:40:00;;;;;;;;;1.00;1.00;;;;;11.55;89.82;102023.47;5032250;28;46567;-74
2023/01/04 06:42:43;;;;;;;;;1.00;1.00;;;;;11.44;89.99;102002.28;5023656;28;45544;-73
2023/01/04 06:45:09;;;;;;;;;0.50;0.50;;;;;11.57;90.13;102019.78;5021385;28;48156;-76
2023/01/04 06:47:35;;;;;;;;;4.50;2.00;;;;;11.56;90.03;102001.06;5035475;28;45663;-77
2023/01/04 06:50:00;;;;;;;;;2.00;2.00;;;;;11.66;90.27;102015.94;5036583;28;45357;-75
2023/01/04 06:52:26;;;;;;;;;0.50;0.50;;;;;11.58;89.72;101999.19;5034046;28;46283;-76
2023/01/04 06:54:51;;;;;;;;;1.00;1.00;;;;;11.59;89.86;102019.75;5035418;28;46206;-74
2023/01/04 06:57:16;;;;;;;;;1.00;1.00;;;;;11.65;90.25;102038.41;5035642;28;45343;-75
2023/01/04 06:59:42;;;;;;;;;0.75;0.75;;;;;11.67;89.73;102023.09;5036089;28;45317;-73
2023/01/04 07:02:12;;;;;;;;;0.00;0.00;;;;;11.66;89.37;102027.56;5034456;28;45557;-73
2023/01/04 07:04:37;;;;;;;;;0.00;0.00;;;;;11.69;88.94;102034.66;5035680;28;46454;-73
2023/01/04 07:07:03;;;;;;;;;1.00;1.00;;;;;11.63;89.20;102005.31;5035078;28;45492;-73
2023/01/04 07:09:28;;;;;;;;;1.00;1.00;;;;;11.74;88.65;102016.59;5033268;28;45516;-74
2023/01/04 07:11:53;;;;;;;;;1.50;1.50;;;;;11.79;88.33;102016.50;5035357;28;45512;-75
2023/01/04 07:14:19;;;;;;;;;2.00;1.00;;;;;11.82;88.15;102017.31;5035425;28;45449;-74
2023/01/04 07:16:44;;;;;;;;;1.00;1.00;;;;;11.70;88.13;101994.34;5033666;28;45423;-73
2023/01/04 07:19:10;;;;;;;;;0.75;0.75;;;;;11.88;87.77;102024.28;5032593;28;45403;-75
2023/01/04 07:21:35;;;;;;;;;1.00;1.00;;;;;11.88;87.41;102009.03;5033670;28;45426;-74
2023/01/04 07:24:00;;;;;;;;;1.00;1.00;;;;;11.86;87.63;102016.28;5034141;28;45469;-74
2023/01/04 07:26:26;;;;;;;;;0.00;0.00;;;;;11.88;87.55;102008.16;5033991;28;45374;-73
2023/01/04 07:31:35;;;;;;;;;1.00;1.00;;;;;11.85;87.66;102003.75;5033772;28;45565;-75
2023/01/04 07:34:00;;;;;;;;;1.00;1.00;;;;;11.83;87.42;101999.34;5026840;28;45322;-74
2023/01/04 07:36:26;;;;;;;;;0.00;0.00;;;;;11.85;87.41;102024.38;5033891;28;45413;-74
2023/01/04 07:38:51;;;;;;;;;0.00;0.00;;;;;11.82;87.35;101994.94;5034646;28;45626;-74
2023/01/04 07:41:16;;;;;;;;;1.00;1.00;;;;;11.88;87.64;102024.28;5033857;28;45396;-75
2023/01/04 07:43:41;;;;;;;;;0.00;0.00;;;;;11.92;87.22;102034.00;5035127;28;45332;-74
2023/01/04 07:46:07;;;;;;;;;1.75;0.00;;;;;11.82;87.24;102016.44;5034449;28;45387;-74
2023/01/04 07:48:32;;;;;;;;;1.00;1.00;;;;;11.94;87.55;102033.03;5035296;28;45362;-74
2023/01/04 07:50:57;;;;;;;;;1.00;1.00;;;;;11.92;87.49;102031.31;5035079;28;45321;-74
2023/01/04 07:53:23;;;;;;;;;1.00;1.00;;;;;11.93;86.90;102012.47;5035042;28;45440;-74
2023/01/04 07:55:54;;;;;;;;;0.00;0.00;;;;;11.92;86.92;102004.44;5034803;28;45410;-74
2023/01/04 07:58:19;;;;;;;;;1.00;1.00;;;;;11.93;87.28;102012.47;5035077;28;45405;-73
2023/01/04 08:00:45;;;;;;;;;1.00;1.00;;;;;11.97;87.31;102002.50;5034397;28;45355;-73
2023/01/04 08:03:10;;;;;;;;;3.75;1.00;;;;;11.87;87.36;102009.09;5035548;28;45499;-74
2023/01/04 08:05:35;;;;;;;;;1.00;1.00;;;;;11.85;87.20;101987.63;5035506;28;45439;-74
2023/01/04 08:08:01;;;;;;;;;1.00;1.00;;;;;12.02;86.99;102012.16;5035370;28;45267;-73
2023/01/04 08:10:26;;;;;;;;;2.00;1.00;;;;;11.90;87.82;101999.13;5034578;28;45517;-74
2023/01/04 08:12:52;;;;;;;;;2.25;1.50;;;;;12.01;88.10;102012.22;5034397;28;45207;-74
2023/01/04 08:15:18;;;;;;;;;4.00;1.75;;;;;11.99;88.33;102011.41;5017525;28;45429;-74
2023/01/04 08:17:43;;;;;;;;;2.00;2.00;;;;;12.07;88.45;102009.34;5034558;28;45269;-74
2023/01/04 08:20:09;;;;;;;;;0.75;0.75;;;;;11.97;88.74;102007.88;5034255;28;45565;-73
2023/01/04 08:22:35;;;;;;;;;2.75;1.25;;;;;11.99;88.27;102008.72;5034671;28;45992;-74
2023/01/04 08:25:00;;;;;;;;;2.00;2.00;;;;;12.06;88.60;102008.47;5034330;28;45341;-73
2023/01/04 08:27:25;;;;;;;;;1.25;1.25;;;;;12.09;88.44;102004.78;5034728;28;45207;-74
2023/01/04 08:29:51;;;;;;;;;4.00;2.25;;;;;12.12;88.21;102002.88;5034083;28;45351;-74
2023/01/04 08:32:16;;;;;;;;;1.00;1.00;;;;;12.08;87.81;101990.47;5034126;28;46082;-75
2023/01/04 08:34:41;;;;;;;;;2.50;1.00;;;;;11.99;87.79;101976.47;5034119;28;45355;-75
2023/01/04 08:37:07;;;;;;;;;1.25;1.25;;;;;12.07;88.21;101990.53;5034519;28;45651;-74
2023/01/04 08:39:34;;;;;;;;;1.00;1.00;;;;;12.13;87.94;101977.78;5034127;28;45464;-74
2023/01/04 08:42:00;;;;;;;;;1.25;1.25;;;;;12.17;88.26;102002.72;5034571;28;45383;-75
2023/01/04 08:44:26;;;;;;;;;1.00;1.00;;;;;12.10;87.98;101998.47;5017909;28;45357;-73
2023/01/04 08:46:53;;;;;;;;;1.50;1.50;;;;;12.22;87.85;102014.22;5034172;28;45303;-74
2023/01/04 08:49:19;;;;;;;;;2.25;1.00;;;;;12.23;87.56;102026.75;5034142;28;45344;-75
2023/01/04 08:51:46;;;;;;;;;2.50;1.25;;;;;12.03;88.01;102010.38;5034149;28;45353;-74
2023/01/04 08:54:12;;;;;;;;;2.00;1.00;;;;;12.08;87.75;102009.28;5033828;28;45389;-73
2023/01/04 08:56:38;;;;;;;;;1.00;1.00;;;;;12.23;87.82;102025.88;5034336;28;45438;-74
2023/01/04 08:59:05;;;;;;;;;1.00;1.00;;;;;12.29;87.62;102017.59;5033946;28;45567;-74
2023/01/04 09:01:34;;;;;;;;;1.25;1.00;;;;;12.18;87.61;102009.88;5033908;28;45460;-74
2023/01/04 09:04:00;;;;;;;;;2.25;1.00;;;;;12.26;88.45;102025.75;5033862;28;45264;-74
2023/01/04 09:06:26;;;;;;;;;2.50;1.00;;;;;12.23;88.68;102032.13;5033948;28;45237;-74
2023/01/04 09:08:51;;;;;;;;;0.25;0.25;;;;;12.20;88.60;102012.50;5033538;28;45558;-75
2023/01/04 09:11:21;;;;;;;;;1.00;1.00;;;;;12.25;89.18;102024.00;5033919;28;45670;-75
2023/01/04 09:13:47;;;;;;;;;1.00;1.00;;;;;12.23;89.23;102012.41;5033761;28;45489;-73
2023/01/04 09:16:18;;;;;;;;;1.25;1.00;;;;;12.30;88.97;102024.72;5033876;28;45338;-74
2023/01/04 09:18:44;;;;;;;;;1.00;1.00;;;;;12.22;88.92;102005.28;5033396;28;45996;-75
2023/01/04 09:21:17;;;;;;;;;1.00;1.00;;;;;12.28;88.67;102019.41;5033522;28;45492;-74
2023/01/04 09:23:43;;;;;;;;;1.00;1.00;;;;;12.30;88.77;102017.53;5033865;28;45476;-73
2023/01/04 09:26:12;;;;;;;;;1.00;1.00;;;;;12.31;88.47;102011.25;5035357;28;45327;-74
2023/01/04 09:28:39;;;;;;;;;1.00;1.00;;;;;12.24;88.73;101998.06;5037035;28;45521;-73
2023/01/04 09:31:06;;;;;;;;;0.00;0.00;;;;;12.30;88.37;101996.03;5036795;28;45506;-74
2023/01/04 09:33:31;;;;;;;;;1.00;1.00;;;;;12.29;88.25;102012.22;5030081;28;45389;-75
2023/01/04 09:36:01;;;;;;;;;1.00;1.00;;;;;12.25;88.75;101997.97;5038883;28;45302;-74
2023/01/04 09:38:27;;;;;;;;;1.00;1.00;;;;;12.32;88.33;101979.84;5038586;28;45635;-73
2023/01/04 09:41:20;;;;;;;;;0.00;0.00;;;;;12.30;88.47;101996.03;5038395;28;45434;-74
2023/01/04 09:43:50;;;;;;;;;0.00;0.00;;;;;12.37;88.50;101997.59;5037777;28;45342;-73
2023/01/04 09:46:41;;;;;;;;;0.00;0.00;;;;;12.28;87.67;101962.06;5036543;28;45493;-73
2023/01/04 09:49:22;;;;;;;;;2.00;0.00;;;;;12.34;87.99;102003.06;5036527;28;45360;-75
2023/01/04 09:51:59;;;;;;;;;2.25;1.00;;;;;12.33;88.11;101971.75;5036649;28;47547;-74
2023/01/04 09:54:31;;;;;;;;;1.00;1.00;;;;;12.33;87.93;101976.25;5036590;28;45260;-74
2023/01/04 09:56:58;;;;;;;;;1.00;1.00;;;;;12.45;87.53;101989.25;5036801;28;45398;-74
2023/01/04 09:59:30;;;;;;;;;3.00;1.00;;;;;12.39;87.45;102006.50;5036225;28;45541;-76
2023/01/04 10:02:22;;;;;;;;;1.00;1.00;;;;;12.42;87.57;102013.56;5036283;28;46142;-74
2023/01/04 10:04:51;;;;;;;;;1.00;1.00;;;;;12.41;87.24;102014.50;5036726;28;45251;-75
2023/01/04 10:07:28;;;;;;;;;2.00;2.00;;;;;12.58;87.35;102046.22;5036252;28;45681;-75
2023/01/04 10:09:54;;;;;;;;;1.00;1.00;;;;;12.44;86.88;102009.88;5036577;28;45270;-74
2023/01/04 10:12:38;;;;;;;;;3.00;1.50;;;;;12.48;86.95;102008.88;5035031;28;46721;-76
2023/01/04 10:15:18;;;;;;;;;1.00;1.00;;;;;12.41;87.15;102011.81;5036072;28;45449;-74
2023/01/04 10:18:16;;;;;;;;;1.00;1.00;;;;;12.56;86.76;102029.25;5036654;28;45413;-74
2023/01/04 10:21:18;;;;;;;;;1.00;1.00;;;;;12.61;86.68;102024.59;5003619;28;45571;-74
2023/01/04 10:24:11;;;;;;;;;1.00;1.00;;;;;12.62;86.29;102019.16;5036755;28;45374;-74
2023/01/04 10:26:40;;;;;;;;;1.50;0.75;;;;;12.65;86.29;102019.06;5036091;28;45360;-75
2023/01/04 10:29:25;;;;;;;;;1.00;1.00;;;;;12.64;86.04;102020.00;5036443;28;45285;-75
2023/01/04 10:32:02;;;;;;;;;3.00;1.00;;;;;12.63;86.42;102014.66;5035829;28;45261;-74
2023/01/04 10:34:41;;;;;;;;;2.25;1.00;;;;;12.49;86.49;102009.75;5020665;28;47183;-73
2023/01/04 10:37:19;;;;;;;;;0.00;0.00;;;;;12.66;86.51;102014.56;5035048;28;45463;-74
2023/01/04 10:39:46;;;;;;;;;3.75;2.00;;;;;12.65;86.71;102020.88;5035920;28;45337;-74
2023/01/04 10:42:35;;;;;;;;;0.25;0.25;;;;;12.60;86.41;101996.78;5036157;28;45364;-73
2023/01/04 10:45:06;;;;;;;;;2.25;2.25;;;;;12.64;86.75;102000.28;5036777;28;45409;-74
2023/01/04 10:47:50;;;;;;;;;1.00;1.00;;;;;12.66;86.65;102009.19;5034232;28;45531;-74
2023/01/04 10:50:20;;;;;;;;;1.00;1.00;;;;;12.73;86.66;101997.25;5034456;28;45443;-73
2023/01/04 10:53:02;;;;;;;;;1.00;1.00;;;;;12.68;87.01;101993.84;5035809;28;45406;-73
2023/01/04 10:55:27;;;;;;;;;1.00;1.00;;;;;12.81;86.67;101998.75;5035791;28;45263;-74
2023/01/04 10:57:55;;;;;;;;;2.00;0.00;;;;;12.88;86.41;102004.78;5035755;28;45357;-73
2023/01/04 11:00:28;;;;;;;;;1.00;1.00;;;;;12.84;86.49;102005.84;5034239;28;45380;-74
2023/01/04 11:03:18;;;;;;;;;1.00;1.00;;;;;12.83;86.64;102002.28;5036460;28;45374;-75
2023/01/04 11:05:51;;;;;;;;;0.25;0.25;;;;;12.73;87.05;102005.34;5036701;28;45568;-75
2023/01/04 11:08:22;;;;;;;;;1.50;1.50;;;;;12.70;87.56;102010.81;5036567;28;45230;-77
2023/01/04 11:11:12;;;;;;;;;1.00;1.00;;;;;12.64;87.68;101994.91;5036475;28;45346;-75
2023/01/04 11:13:38;;;;;;;;;1.50;1.50;;;;;12.65;87.49;101985.91;5035496;28;45244;-74
2023/01/04 11:16:04;;;;;;;;;2.00;2.00;;;;;12.66;87.76;101995.72;5035523;28;46141;-74
2023/01/04 11:18:31;;;;;;;;;2.00;1.00;;;;;12.62;87.94;101994.94;5035418;28;45444;-74
2023/01/04 11:20:58;;;;;;;;;1.00;1.00;;;;;12.57;87.80;101990.66;5035431;28;45465;-75
2023/01/04 11:23:24;;;;;;;;;2.00;1.25;;;;;12.64;87.80;101985.00;5035157;28;46473;-75
2023/01/04 11:25:57;;;;;;;;;1.00;1.00;;;;;12.61;88.02;101990.50;5035211;28;45422;-74
2023/01/04 11:28:30;;;;;;;;;1.00;1.00;;;;;12.59;88.48;101983.44;5036017;28;45540;-74
2023/01/04 11:31:06;;;;;;;;;0.50;0.50;;;;;12.55;89.18;101988.03;5037672;28;45343;-75
2023/01/04 11:33:51;;;;;;;;;2.00;2.00;;;;;12.61;89.80;101989.59;5016871;28;46478;-74
2023/01/04 11:36:42;;;;;;;;;2.00;2.00;;;;;12.59;90.43;101986.97;5020625;28;47375;-74
2023/01/04 11:39:20;;;;;;;;;2.25;2.25;;;;;12.58;90.59;101976.28;5017246;28;45260;-75
2023/01/04 11:42:03;;;;;;;;;1.75;0.50;;;;;12.60;90.57;101969.00;5035279;28;45234;-74
2023/01/04 11:44:33;;;;;;;;;1.00;1.00;;;;;12.63;90.49;101966.22;5035517;28;45494;-75
2023/01/04 11:47:19;;;;;;;;;1.00;1.00;;;;;12.57;90.61;101969.13;5035064;28;45474;-77
2023/01/04 11:49:45;;;;;;;;;2.50;2.50;;;;;12.64;90.41;101968.00;5035094;28;45306;-77
2023/01/04 11:52:37;;;;;;;;;2.00;2.00;;;;;12.64;89.99;101963.50;5034949;28;45486;-78
2023/01/04 11:55:23;;;;;;;;;3.00;1.00;;;;;12.72;90.24;101972.16;5033838;28;45513;-76
2023/01/04 11:58:04;;;;;;;;;1.00;1.00;;;;;12.69;89.79;101941.78;5033485;28;46211;-77
2023/01/04 12:00:29;;;;;;;;;0.00;0.00;;;;;12.77;89.70;101945.97;5034895;28;45283;-76
2023/01/04 12:03:10;;;;;;;;;2.50;1.00;;;;;12.74;90.14;101951.47;5035048;28;45335;-78
2023/01/04 12:05:36;;;;;;;;;1.00;1.00;;;;;12.64;90.95;101952.72;5035343;28;45351;-76
2023/01/04 12:08:02;;;;;;;;;1.75;0.75;;;;;12.72;90.34;101930.94;5034926;28;45272;-75
2023/01/04 12:10:28;;;;;;;;;1.50;1.50;;;;;12.78;90.46;101934.25;5034668;28;45351;-73
2023/01/04 12:12:55;;;;;;;;;1.00;1.00;;;;;12.87;90.41;101943.81;5034998;28;45228;-75
2023/01/04 12:15:46;;;;;;;;;0.00;0.00;;;;;12.92;90.00;101941.88;5034345;28;45575;-74
2023/01/04 12:18:20;;;;;;;;;0.00;0.00;;;;;12.88;89.95;101949.16;5034414;28;45569;-75
2023/01/04 12:20:45;;;;;;;;;1.00;1.00;;;;;12.92;90.05;101949.06;5034532;28;45281;-76
2023/01/04 12:23:12;;;;;;;;;0.00;0.00;;;;;12.77;90.46;101937.88;5034694;28;45415;-74
2023/01/04 12:25:44;;;;;;;;;1.00;1.00;;;;;12.81;91.11;101944.94;5034623;28;45285;-76
2023/01/04 12:28:28;;;;;;;;;1.00;1.00;;;;;12.88;90.69;101935.69;5034464;28;45992;-76
2023/01/04 12:30:53;;;;;;;;;0.25;0.25;;;;;12.82;90.77;101933.25;5034765;28;45335;-75
2023/01/04 12:33:30;;;;;;;;;1.00;1.00;;;;;12.93;90.30;101935.50;5029757;28;45830;-74
2023/01/04 12:36:01;;;;;;;;;3.00;1.25;;;;;12.87;90.57;101949.19;5034367;28;45410;-77
2023/01/04 12:38:59;;;;;;;;;2.00;1.00;;;;;12.87;90.74;101924.97;5034237;28;45459;-74
2023/01/04 12:41:33;;;;;;;;;2.50;0.50;;;;;12.90;90.98;101922.19;5032677;28;45457;-75
2023/01/04 12:44:22;;;;;;;;;1.00;1.00;;;;;12.95;90.71;101917.50;5034412;28;45490;-74
2023/01/04 12:49:42;;;;;;;;;3.00;0.00;;;;;13.07;89.82;101908.97;5032167;28;45689;-75
2023/01/04 12:52:08;;;;;;;;;0.00;0.00;;;;;13.06;89.78;101909.91;5032903;28;45201;-76
2023/01/04 12:54:47;;;;;;;;;0.50;0.50;;;;;13.04;89.63;101902.81;5041179;28;45340;-74
2023/01/04 12:57:15;;;;;;;;;1.50;0.00;;;;;13.10;89.67;101905.31;5033845;28;45503;-75
2023/01/04 13:00:03;;;;;;;;;0.25;0.25;;;;;13.17;89.56;101891.59;5033672;28;45550;-73
2023/01/04 13:02:43;;;;;;;;;0.75;0.75;;;;;13.16;90.03;101889.81;5023580;28;45196;-75
2023/01/04 13:05:17;;;;;;;;;0.00;0.00;;;;;13.19;90.09;101900.47;5037251;28;45401;-75
2023/01/04 13:07:54;;;;;;;;;1.00;1.00;;;;;13.19;89.79;101892.38;5037308;28;45603;-75
2023/01/04 13:10:35;;;;;;;;;2.00;0.50;;;;;13.27;90.40;101887.56;5037227;28;45560;-75
2023/01/04 13:13:41;;;;;;;;;2.00;0.75;;;;;13.33;89.95;101899.06;5037242;28;45419;-74
2023/01/04 13:16:09;;;;;;;;;2.50;1.00;;;;;13.35;89.77;101897.19;4994373;28;45611;-74
2023/01/04 13:18:36;;;;;;;;;0.50;0.50;;;;;13.39;90.01;101901.50;5035863;28;45617;-75
2023/01/04 13:21:10;;;;;;;;;1.50;0.00;;;;;13.30;90.15;101888.41;5037570;28;45312;-73
2023/01/04 13:23:36;;;;;;;;;0.00;0.00;;;;;13.20;89.97;101858.25;5036895;28;45412;-74
2023/01/04 13:26:28;;;;;;;;;2.00;0.25;;;;;13.48;89.63;101898.47;5037294;28;45352;-73
2023/01/04 13:29:15;;;;;;;;;2.25;1.00;;;;;13.55;89.88;101894.56;5037016;28;45331;-73
2023/01/04 13:32:10;;;;;;;;;0.75;0.25;;;;;13.53;89.71;101896.44;5035293;28;45438;-75
2023/01/04 13:34:51;;;;;;;;;0.00;0.00;;;;;13.47;90.09;101896.69;5036752;28;45330;-76
2023/01/04 13:37:34;;;;;;;;;0.25;0.25;;;;;13.46;90.69;101879.66;5037072;28;45280;-76
2023/01/04 13:40:27;;;;;;;;;0.00;0.00;;;;;13.50;90.77;101872.34;5037174;28;45221;-76
2023/01/04 13:42:55;;;;;;;;;0.00;0.00;;;;;13.47;90.75;101880.53;5036640;28;46331;-75
2023/01/04 13:45:58;;;;;;;;;0.00;0.00;;;;;13.45;91.32;101890.47;5036618;28;45379;-74
2023/01/04 13:48:25;;;;;;;;;1.00;0.00;;;;;13.31;91.46;101861.41;5036562;28;45665;-76
2023/01/04 13:51:02;;;;;;;;;0.00;0.00;;;;;13.38;91.36;101868.31;5036714;28;45261;-75
2023/01/04 13:53:29;;;;;;;;;0.00;0.00;;;;;13.46;91.42;101894.94;5036219;28;45517;-75
2023/01/04 13:56:02;;;;;;;;;1.75;1.00;;;;;13.43;91.76;101873.53;5036177;28;45375;-74
2023/01/04 13:58:31;;;;;;;;;0.00;0.00;;;;;13.31;92.56;101861.41;5036910;28;45422;-75
2023/01/04 14:00:59;;;;;;;;;1.00;1.00;;;;;13.40;92.52;101887.97;5038461;28;45357;-76
2023/01/04 14:03:28;;;;;;;;;0.00;0.00;;;;;13.38;93.13;101870.13;5038751;28;46086;-74
2023/01/04 14:06:09;;;;;;;;;0.50;0.50;;;;;13.41;92.79;101859.22;5038364;28;45331;-76
2023/01/04 14:08:51;;;;;;;;;0.25;0.25;;;;;13.38;93.26;101868.31;5036341;28;45261;-75
2023/01/04 14:14:23;;;;;;;;;0.00;0.00;;;;;13.44;92.41;101865.34;5036487;28;45686;-75
2023/01/04 14:16:50;;;;;;;;;0.00;0.00;;;;;13.49;92.17;101868.75;5036048;28;45292;-76
2023/01/04 14:19:39;;;;;;;;;0.50;0.50;;;;;13.58;91.70;101867.53;5036742;28;45342;-75
2023/01/04 14:22:46;;;;;;;;;0.00;0.00;;;;;13.55;92.22;101859.53;5036331;28;45393;-75
2023/01/04 14:25:29;;;;;;;;;0.00;0.00;;;;;13.60;92.24;101869.22;5025288;28;45472;-75
2023/01/04 14:28:17;;;;;;;;;0.00;0.00;;;;;13.56;92.25;101864.88;5036022;28;45386;-74
2023/01/04 14:30:43;;;;;;;;;0.00;0.00;;;;;13.52;92.59;101857.00;5035177;28;45340;-75
2023/01/04 14:33:18;;;;;;;;;0.00;0.00;;;;;13.55;92.51;101875.72;5022359;28;45217;-75
2023/01/04 14:35:43;;;;;;;;;2.00;0.00;;;;;13.46;93.03;101868.88;5028701;28;46596;-74
2023/01/04 14:38:17;;;;;;;;;0.75;0.75;;;;;13.47;92.94;101883.22;5034022;28;45264;-75
2023/01/04 14:40:44;;;;;;;;;0.50;0.50;;;;;13.57;92.71;101881.94;5036428;28;45367;-75
2023/01/04 14:43:33;;;;;;;;;0.00;0.00;;;;;13.58;92.42;101889.06;5037592;28;46873;-74
2023/01/04 14:45:59;;;;;;;;;1.50;0.00;;;;;13.59;92.37;101890.84;5032863;28;45430;-74
2023/01/04 14:48:24;;;;;;;;;0.00;0.00;;;;;13.59;92.67;101890.84;5036214;28;45383;-75
2023/01/04 14:50:50;;;;;;;;;1.00;1.00;;;;;13.64;92.52;101886.13;5035721;28;45723;-74
2023/01/04 14:53:17;;;;;;;;;0.50;0.50;;;;;13.62;92.44;101879.91;5036747;28;45269;-75
2023/01/04 14:55:43;;;;;;;;;0.00;0.00;;;;;13.64;91.77;101869.94;5019645;28;46577;-78
2023/01/04 14:58:08;;;;;;;;;1.00;1.00;;;;;13.77;91.36;101894.59;5037773;28;45367;-78
2023/01/04 15:00:34;;;;;;;;;2.00;0.50;;;;;13.82;91.24;101887.19;5039048;28;45435;-76
2023/01/04 15:02:59;;;;;;;;;0.00;0.00;;;;;13.85;90.93;101898.75;5021675;28;45618;-77
2023/01/04 15:05:24;;;;;;;;;0.50;0.50;;;;;13.87;90.57;101893.25;5042980;28;45462;-77
2023/01/04 15:07:51;;;;;;;;;0.75;0.75;;;;;13.90;90.25;101888.63;5044836;28;45395;-76
2023/01/04 15:10:21;;;;;;;;;0.00;0.00;;;;;13.98;89.96;101888.31;5046066;28;45460;-77
2023/01/04 15:12:46;;;;;;;;;1.75;1.00;;;;;13.83;89.74;101860.19;5039050;28;45383;-78
2023/01/04 15:15:12;;;;;;;;;0.00;0.00;;;;;13.90;89.58;101875.16;5035649;28;45373;-78
2023/01/04 15:17:37;;;;;;;;;2.00;0.25;;;;;13.84;89.90;101872.72;5037094;28;45268;-77
2023/01/04 15:20:04;;;;;;;;;1.00;0.00;;;;;14.04;89.63;101893.44;5037998;28;46305;-77
2023/01/04 15:22:29;;;;;;;;;0.50;0.50;;;;;14.11;89.52;101902.16;5036271;28;45364;-75
2023/01/04 15:24:55;;;;;;;;;0.00;0.00;;;;;14.09;89.24;101907.63;5034595;28;46085;-74
2023/01/04 15:27:20;;;;;;;;;0.00;0.00;;;;;13.96;88.82;101888.38;5033456;28;45295;-76
2023/01/04 15:29:45;;;;;;;;;0.00;0.00;;;;;14.05;88.70;101903.28;5035322;28;45378;-75
2023/01/04 15:32:11;;;;;;;;;0.00;0.00;;;;;14.09;88.39;101899.53;5031583;28;45452;-75
2023/01/04 15:34:36;;;;;;;;;0.00;0.00;;;;;14.13;88.32;101901.13;5032552;28;45322;-74
2023/01/04 15:37:01;;;;;;;;;0.00;0.00;;;;;14.17;88.05;101894.69;5038642;28;45419;-76
2023/01/04 15:39:27;;;;;;;;;2.00;0.00;;;;;14.14;88.08;101900.19;5035828;28;45277;-75
2023/01/04 15:44:36;;;;;;;;;0.00;0.00;;;;;14.11;88.34;101897.66;5035302;28;45291;-75
2023/01/04 15:47:01;;;;;;;;;0.00;0.00;;;;;14.06;88.43;101902.34;5034707;28;45402;-74
2023/01/04 15:49:30;;;;;;;;;0.00;0.00;;;;;14.06;88.40;101910.44;5034549;28;45463;-76
2023/01/04 15:51:56;;;;;;;;;0.00;0.00;;;;;14.03;88.02;101907.88;5034482;28;45588;-75
2023/01/04 15:54:28;;;;;;;;;0.00;0.00;;;;;14.12;87.90;101920.09;5033995;28;45324;-74
2023/01/04 15:56:54;;;;;;;;;0.00;0.00;;;;;14.03;87.83;101914.13;5034687;28;45523;-74
2023/01/04 15:59:20;;;;;;;;;0.00;0.00;;;;;14.12;87.71;101920.97;5036959;28;45343;-75
2023/01/04 16:01:46;;;;;;;;;0.00;0.00;;;;;14.10;86.70;101922.00;5034975;28;45308;-74
2023/01/04 16:04:11;;;;;;;;;0.00;0.00;;;;;14.13;86.43;101917.31;5034477;28;46542;-75
2023/01/04 16:06:37;;;;;;;;;0.00;0.00;;;;;14.12;86.44;101912.88;5034342;28;45326;-74
2023/01/04 16:09:03;;;;;;;;;0.00;0.00;;;;;14.14;86.38;101916.38;5033114;28;45351;-76
2023/01/04 16:11:29;;;;;;;;;0.00;0.00;;;;;14.18;86.32;101923.41;5034280;28;45615;-76
2023/01/04 16:13:54;;;;;;;;;1.00;0.00;;;;;14.24;86.40;101922.28;5034154;28;45443;-77
2023/01/04 16:16:22;;;;;;;;;0.00;0.00;;;;;14.29;86.35;101923.81;5033938;28;45414;-76
2023/01/04 16:18:49;;;;;;;;;0.00;0.00;;;;;14.29;86.21;101926.53;5034836;28;45419;-77
2023/01/04 16:21:19;;;;;;;;;0.00;0.00;;;;;14.29;86.37;101920.28;5034166;28;45498;-75
2023/01/04 16:23:49;;;;;;;;;0.25;0.00;;;;;14.30;86.40;101916.59;5032697;28;47368;-75
2023/01/04 16:26:14;;;;;;;;;0.00;0.00;;;;;14.30;86.08;101905.81;5034193;28;45956;-75
2023/01/04 16:28:40;;;;;;;;;0.00;0.00;;;;;14.35;86.05;101914.59;5035922;28;45422;-76
2023/01/04 16:31:07;;;;;;;;;0.00;0.00;;;;;14.20;86.25;101883.78;5034002;28;45356;-75
2023/01/04 16:33:34;;;;;;;;;0.00;0.00;;;;;14.31;86.53;101912.97;5034007;28;45404;-75
2023/01/04 16:35:59;;;;;;;;;0.00;0.00;;;;;14.33;86.43;101909.28;5036611;28;45237;-74
2023/01/04 16:38:25;;;;;;;;;0.00;0.00;;;;;14.34;86.39;101910.16;5037868;28;45269;-75
2023/01/04 16:41:01;;;;;;;;;0.00;0.00;;;;;14.25;86.43;101892.53;5037946;28;45313;-74
2023/01/04 16:43:28;;;;;;;;;0.00;0.00;;;;;14.37;86.49;101918.13;5038715;28;45543;-74
2023/01/04 16:46:11;;;;;;;;;0.00;0.00;;;;;14.41;86.38;101921.59;5037334;28;45367;-77
2023/01/04 16:48:42;;;;;;;;;3.25;1.00;;;;;14.38;86.13;101918.06;5037955;28;45224;-75
2023/01/04 16:51:08;;;;;;;;;0.25;0.00;;;;;14.42;85.90;101915.25;5037612;28;45769;-74
2023/01/04 16:53:34;;;;;;;;;0.25;0.25;;;;;14.44;85.95;101925.03;5037606;28;45787;-73
2023/01/04 16:56:04;;;;;;;;;0.00;0.00;;;;;14.29;86.22;101904.94;5036662;28;45432;-75
2023/01/04 16:58:30;;;;;;;;;1.00;1.00;;;;;14.36;85.85;101906.47;5038053;28;45415;-74
2023/01/04 17:00:55;;;;;;;;;1.00;1.00;;;;;14.33;86.10;101916.50;5039004;28;45820;-74
2023/01/04 17:03:21;;;;;;;;;0.00;0.00;;;;;14.21;85.96;101895.41;5039415;28;45308;-75
2023/01/04 17:05:46;;;;;;;;;1.00;1.00;;;;;14.36;86.15;101935.25;5038845;28;45373;-75
2023/01/04 17:08:11;;;;;;;;;1.75;1.00;;;;;14.31;86.00;101923.75;5038676;28;45398;-74
2023/01/04 17:10:37;;;;;;;;;0.00;0.00;;;;;14.31;86.25;101923.75;5038460;28;45351;-74
2023/01/04 17:13:02;;;;;;;;;0.00;0.00;;;;;14.37;85.87;101939.72;5037495;28;45921;-73
2023/01/04 17:15:28;;;;;;;;;0.25;0.25;;;;;14.36;86.13;101935.25;5037207;28;45436;-76
2023/01/04 17:17:53;;;;;;;;;1.00;1.00;;;;;14.37;86.32;101929.75;5037662;28;46076;-75
2023/01/04 17:20:18;;;;;;;;;0.00;0.00;;;;;14.36;86.27;101924.47;5037180;28;45653;-75
2023/01/04 17:22:44;;;;;;;;;2.00;0.00;;;;;14.35;86.43;101936.19;5037937;28;45403;-75
2023/01/04 17:25:10;;;;;;;;;1.00;1.00;;;;;14.36;86.61;101930.75;5037008;28;45274;-75